sensor_id;sensor_type;location;lat;lon;timestamp;temperature;humidity
46029;DHT22;31763;48.180;7.904;2024-02-23T00:02:14;4.70;99.90
46029;DHT22;31763;48.180;7.904;2024-02-23T00:04:41;4.50;99.90
46029;DHT22;31763;48.180;7.904;2024-02-23T00:07:08;4.60;99.90
46029;DHT22;31763;48.180;7.904;2024-02-23T00:09:35;4.60;99.90
46029;DHT22;31763;48.180;7.904;2024-02-23T00:12:03;4.60;99.90
46029;DHT22;31763;48.180;7.904;2024-02-23T00:14:30;4.60;99.90
46029;DHT22;31763;48.180;7.904;2024-02-23T00:16:58;4.50;99.90
46029;DHT22;31763;48.180;7.904;2024-02-23T00:19:25;4.70;99.90
46029;DHT22;31763;48.180;7.904;2024-02-23T00:21:52;4.70;99.90
46029;DHT22;31763;48.180;7.904;2024-02-23T00:24:19;4.70;99.90
46029;DHT22;31763;48.180;7.904;2024-02-23T00:26:49;4.60;99.90
46029;DHT22;31763;48.180;7.904;2024-02-23T00:29:18;4.50;99.90
46029;DHT22;31763;48.180;7.904;2024-02-23T00:31:45;4.40;99.90
46029;DHT22;31763;48.180;7.904;2024-02-23T00:34:12;4.40;99.90
46029;DHT22;31763;48.180;7.904;2024-02-23T00:36:40;4.40;99.90
46029;DHT22;31763;48.180;7.904;2024-02-23T00:39:08;4.40;99.90
46029;DHT22;31763;48.180;7.904;2024-02-23T00:41:35;4.40;99.90
46029;DHT22;31763;48.180;7.904;2024-02-23T00:44:03;4.50;99.90
46029;DHT22;31763;48.180;7.904;2024-02-23T00:46:30;4.50;99.90
46029;DHT22;31763;48.180;7.904;2024-02-23T00:48:57;4.50;99.90
46029;DHT22;31763;48.180;7.904;2024-02-23T00:51:24;4.50;99.90
46029;DHT22;31763;48.180;7.904;2024-02-23T00:53:52;4.50;99.90
46029;DHT22;31763;48.180;7.904;2024-02-23T00:56:19;4.50;99.90
46029;DHT22;31763;48.180;7.904;2024-02-23T00:58:53;4.50;99.90
46029;DHT22;31763;48.180;7.904;2024-02-23T01:01:20;4.40;99.90
46029;DHT22;31763;48.180;7.904;2024-02-23T01:03:46;4.40;99.90
46029;DHT22;31763;48.180;7.904;2024-02-23T01:06:13;4.40;99.90
46029;DHT22;31763;48.180;7.904;2024-02-23T01:08:40;4.30;99.90
46029;DHT22;31763;48.180;7.904;2024-02-23T01:11:07;4.30;99.90
46029;DHT22;31763;48.180;7.904;2024-02-23T01:13:34;4.30;99.90
46029;DHT22;31763;48.180;7.904;2024-02-23T01:16:02;4.20;99.90
46029;DHT22;31763;48.180;7.904;2024-02-23T01:18:29;4.20;99.90
46029;DHT22;31763;48.180;7.904;2024-02-23T01:20:56;4.20;99.90
46029;DHT22;31763;48.180;7.904;2024-02-23T01:23:24;4.20;99.90
46029;DHT22;31763;48.180;7.904;2024-02-23T01:25:51;4.00;99.90
46029;DHT22;31763;48.180;7.904;2024-02-23T01:28:17;4.00;99.90
46029;DHT22;31763;48.180;7.904;2024-02-23T01:30:44;4.00;99.90
46029;DHT22;31763;48.180;7.904;2024-02-23T01:33:11;4.00;99.90
46029;DHT22;31763;48.180;7.904;2024-02-23T01:35:38;4.00;99.90
46029;DHT22;31763;48.180;7.904;2024-02-23T01:38:05;3.90;99.90
46029;DHT22;31763;48.180;7.904;2024-02-23T01:40:32;3.90;99.90
46029;DHT22;31763;48.180;7.904;2024-02-23T01:43:05;3.90;99.90
46029;DHT22;31763;48.180;7.904;2024-02-23T01:45:32;3.90;99.90
46029;DHT22;31763;48.180;7.904;2024-02-23T01:48:00;3.90;99.90
46029;DHT22;31763;48.180;7.904;2024-02-23T01:50:29;3.80;99.90
46029;DHT22;31763;48.180;7.904;2024-02-23T01:53:00;3.80;99.90
46029;DHT22;31763;48.180;7.904;2024-02-23T01:55:27;3.70;99.90
46029;DHT22;31763;48.180;7.904;2024-02-23T01:57:58;3.70;99.90
46029;DHT22;31763;48.180;7.904;2024-02-23T02:00:26;3.70;99.90
46029;DHT22;31763;48.180;7.904;2024-02-23T02:02:53;3.70;99.90
46029;DHT22;31763;48.180;7.904;2024-02-23T02:05:20;3.60;99.90
46029;DHT22;31763;48.180;7.904;2024-02-23T02:07:47;3.70;99.90
46029;DHT22;31763;48.180;7.904;2024-02-23T02:10:17;3.60;99.90
46029;DHT22;31763;48.180;7.904;2024-02-23T02:12:44;3.60;99.90
46029;DHT22;31763;48.180;7.904;2024-02-23T02:15:11;3.60;99.90
46029;DHT22;31763;48.180;7.904;2024-02-23T02:17:38;3.50;99.90
46029;DHT22;31763;48.180;7.904;2024-02-23T02:20:05;3.50;99.90
46029;DHT22;31763;48.180;7.904;2024-02-23T02:22:34;3.50;99.90
46029;DHT22;31763;48.180;7.904;2024-02-23T02:25:01;3.50;99.90
46029;DHT22;31763;48.180;7.904;2024-02-23T02:27:28;3.50;99.90
46029;DHT22;31763;48.180;7.904;2024-02-23T02:29:55;3.50;99.90
46029;DHT22;31763;48.180;7.904;2024-02-23T02:32:23;3.50;99.90
46029;DHT22;31763;48.180;7.904;2024-02-23T02:34:50;3.50;99.90
46029;DHT22;31763;48.180;7.904;2024-02-23T02:37:17;3.40;99.90
46029;DHT22;31763;48.180;7.904;2024-02-23T02:39:43;3.40;99.90
46029;DHT22;31763;48.180;7.904;2024-02-23T02:42:10;3.40;99.90
46029;DHT22;31763;48.180;7.904;2024-02-23T02:44:37;3.40;99.90
46029;DHT22;31763;48.180;7.904;2024-02-23T02:47:04;3.40;99.90
46029;DHT22;31763;48.180;7.904;2024-02-23T02:49:31;3.40;99.90
46029;DHT22;31763;48.180;7.904;2024-02-23T02:51:58;3.30;99.90
46029;DHT22;31763;48.180;7.904;2024-02-23T02:54:25;3.30;99.90
46029;DHT22;31763;48.180;7.904;2024-02-23T02:56:52;3.30;99.90
46029;DHT22;31763;48.180;7.904;2024-02-23T02:59:20;3.30;99.90
46029;DHT22;31763;48.180;7.904;2024-02-23T03:01:50;3.40;99.90
46029;DHT22;31763;48.180;7.904;2024-02-23T03:04:17;3.30;99.90
46029;DHT22;31763;48.180;7.904;2024-02-23T03:06:44;3.30;99.90
46029;DHT22;31763;48.180;7.904;2024-02-23T03:09:10;3.40;99.90
46029;DHT22;31763;48.180;7.904;2024-02-23T03:11:37;3.30;99.90
46029;DHT22;31763;48.180;7.904;2024-02-23T03:14:05;3.30;99.90
46029;DHT22;31763;48.180;7.904;2024-02-23T03:16:33;3.20;99.90
46029;DHT22;31763;48.180;7.904;2024-02-23T03:19:00;3.30;99.90
46029;DHT22;31763;48.180;7.904;2024-02-23T03:21:27;3.30;99.90
46029;DHT22;31763;48.180;7.904;2024-02-23T03:23:54;3.30;99.90
46029;DHT22;31763;48.180;7.904;2024-02-23T03:26:21;3.30;99.90
46029;DHT22;31763;48.180;7.904;2024-02-23T03:28:48;3.30;99.90
46029;DHT22;31763;48.180;7.904;2024-02-23T03:33:46;3.30;99.90
46029;DHT22;31763;48.180;7.904;2024-02-23T03:36:13;3.40;99.90
46029;DHT22;31763;48.180;7.904;2024-02-23T03:38:40;3.40;99.90
46029;DHT22;31763;48.180;7.904;2024-02-23T03:41:07;3.40;99.90
46029;DHT22;31763;48.180;7.904;2024-02-23T03:43:33;3.40;99.90
46029;DHT22;31763;48.180;7.904;2024-02-23T03:46:01;3.40;99.90
46029;DHT22;31763;48.180;7.904;2024-02-23T03:48:28;3.40;99.90
46029;DHT22;31763;48.180;7.904;2024-02-23T03:50:55;3.40;99.90
46029;DHT22;31763;48.180;7.904;2024-02-23T03:53:22;3.40;99.90
46029;DHT22;31763;48.180;7.904;2024-02-23T03:55:49;3.40;99.90
46029;DHT22;31763;48.180;7.904;2024-02-23T03:58:16;3.40;99.90
46029;DHT22;31763;48.180;7.904;2024-02-23T04:00:43;3.40;99.90
46029;DHT22;31763;48.180;7.904;2024-02-23T04:03:10;3.30;99.90
46029;DHT22;31763;48.180;7.904;2024-02-23T04:05:37;3.40;99.90
46029;DHT22;31763;48.180;7.904;2024-02-23T04:08:04;3.30;99.90
46029;DHT22;31763;48.180;7.904;2024-02-23T04:10:32;3.30;99.90
46029;DHT22;31763;48.180;7.904;2024-02-23T04:13:00;3.30;99.90
46029;DHT22;31763;48.180;7.904;2024-02-23T04:15:28;3.30;99.90
46029;DHT22;31763;48.180;7.904;2024-02-23T04:17:54;3.30;99.90
46029;DHT22;31763;48.180;7.904;2024-02-23T04:20:21;3.30;99.90
46029;DHT22;31763;48.180;7.904;2024-02-23T04:22:48;3.20;99.90
46029;DHT22;31763;48.180;7.904;2024-02-23T04:25:15;3.20;99.90
46029;DHT22;31763;48.180;7.904;2024-02-23T04:27:42;3.30;99.90
46029;DHT22;31763;48.180;7.904;2024-02-23T04:30:11;3.20;99.90
46029;DHT22;31763;48.180;7.904;2024-02-23T04:32:39;3.20;99.90
46029;DHT22;31763;48.180;7.904;2024-02-23T04:35:06;3.20;99.90
46029;DHT22;31763;48.180;7.904;2024-02-23T04:37:33;3.20;99.90
46029;DHT22;31763;48.180;7.904;2024-02-23T04:40:03;3.20;99.90
46029;DHT22;31763;48.180;7.904;2024-02-23T04:42:32;3.20;99.90
46029;DHT22;31763;48.180;7.904;2024-02-23T04:44:59;3.20;99.90
46029;DHT22;31763;48.180;7.904;2024-02-23T04:47:26;3.20;99.90
46029;DHT22;31763;48.180;7.904;2024-02-23T04:49:53;3.20;99.90
46029;DHT22;31763;48.180;7.904;2024-02-23T04:52:20;3.10;99.90
46029;DHT22;31763;48.180;7.904;2024-02-23T04:54:47;3.10;99.90
46029;DHT22;31763;48.180;7.904;2024-02-23T04:57:14;3.10;99.90
46029;DHT22;31763;48.180;7.904;2024-02-23T04:59:41;3.10;99.90
46029;DHT22;31763;48.180;7.904;2024-02-23T05:02:07;3.10;99.90
46029;DHT22;31763;48.180;7.904;2024-02-23T05:04:34;2.90;99.90
46029;DHT22;31763;48.180;7.904;2024-02-23T05:07:01;3.00;99.90
46029;DHT22;31763;48.180;7.904;2024-02-23T05:09:28;3.00;99.90
46029;DHT22;31763;48.180;7.904;2024-02-23T05:11:55;2.90;99.90
46029;DHT22;31763;48.180;7.904;2024-02-23T05:14:22;3.00;99.90
46029;DHT22;31763;48.180;7.904;2024-02-23T05:16:49;2.90;99.90
46029;DHT22;31763;48.180;7.904;2024-02-23T05:19:16;2.90;99.90
46029;DHT22;31763;48.180;7.904;2024-02-23T05:21:43;2.80;99.90
46029;DHT22;31763;48.180;7.904;2024-02-23T05:24:11;2.80;99.90
46029;DHT22;31763;48.180;7.904;2024-02-23T05:26:38;2.80;99.90
46029;DHT22;31763;48.180;7.904;2024-02-23T05:29:06;2.80;99.90
46029;DHT22;31763;48.180;7.904;2024-02-23T05:31:47;2.80;99.90
46029;DHT22;31763;48.180;7.904;2024-02-23T05:34:15;2.80;99.90
46029;DHT22;31763;48.180;7.904;2024-02-23T05:36:42;2.90;99.90
46029;DHT22;31763;48.180;7.904;2024-02-23T05:39:09;2.90;99.90
46029;DHT22;31763;48.180;7.904;2024-02-23T05:41:37;2.90;99.90
46029;DHT22;31763;48.180;7.904;2024-02-23T05:44:04;2.80;99.90
46029;DHT22;31763;48.180;7.904;2024-02-23T05:46:33;2.80;99.90
46029;DHT22;31763;48.180;7.904;2024-02-23T05:49:01;2.80;99.90
46029;DHT22;31763;48.180;7.904;2024-02-23T05:51:30;2.70;99.90
46029;DHT22;31763;48.180;7.904;2024-02-23T05:53:57;2.80;99.90
46029;DHT22;31763;48.180;7.904;2024-02-23T05:56:24;2.80;99.90
46029;DHT22;31763;48.180;7.904;2024-02-23T05:58:51;2.80;99.90
46029;DHT22;31763;48.180;7.904;2024-02-23T06:01:18;2.80;99.90
46029;DHT22;31763;48.180;7.904;2024-02-23T06:03:45;2.90;99.90
46029;DHT22;31763;48.180;7.904;2024-02-23T06:06:12;2.80;99.90
46029;DHT22;31763;48.180;7.904;2024-02-23T06:08:40;2.80;99.90
46029;DHT22;31763;48.180;7.904;2024-02-23T06:11:09;2.90;99.90
46029;DHT22;31763;48.180;7.904;2024-02-23T06:13:36;2.80;99.90
46029;DHT22;31763;48.180;7.904;2024-02-23T06:16:04;2.80;99.90
46029;DHT22;31763;48.180;7.904;2024-02-23T06:18:32;2.80;99.90
46029;DHT22;31763;48.180;7.904;2024-02-23T06:20:58;2.90;99.90
46029;DHT22;31763;48.180;7.904;2024-02-23T06:23:25;2.90;99.90
46029;DHT22;31763;48.180;7.904;2024-02-23T06:25:52;2.80;99.90
46029;DHT22;31763;48.180;7.904;2024-02-23T06:28:19;2.80;99.90
46029;DHT22;31763;48.180;7.904;2024-02-23T06:30:46;2.80;99.90
46029;DHT22;31763;48.180;7.904;2024-02-23T06:33:13;2.60;99.90
46029;DHT22;31763;48.180;7.904;2024-02-23T06:35:40;2.60;99.90
46029;DHT22;31763;48.180;7.904;2024-02-23T06:38:07;2.70;99.90
46029;DHT22;31763;48.180;7.904;2024-02-23T06:40:34;2.70;99.90
46029;DHT22;31763;48.180;7.904;2024-02-23T06:43:17;2.70;99.90
46029;DHT22;31763;48.180;7.904;2024-02-23T06:45:49;2.60;99.90
46029;DHT22;31763;48.180;7.904;2024-02-23T06:48:16;2.60;99.90
46029;DHT22;31763;48.180;7.904;2024-02-23T06:50:43;2.60;99.90
46029;DHT22;31763;48.180;7.904;2024-02-23T06:53:10;2.50;99.90
46029;DHT22;31763;48.180;7.904;2024-02-23T06:55:37;2.60;99.90
46029;DHT22;31763;48.180;7.904;2024-02-23T06:58:04;2.60;99.90
46029;DHT22;31763;48.180;7.904;2024-02-23T07:00:34;2.60;99.90
46029;DHT22;31763;48.180;7.904;2024-02-23T07:03:02;2.60;99.90
46029;DHT22;31763;48.180;7.904;2024-02-23T07:05:30;2.60;99.90
46029;DHT22;31763;48.180;7.904;2024-02-23T07:07:59;2.60;99.90
46029;DHT22;31763;48.180;7.904;2024-02-23T07:10:26;2.60;99.90
46029;DHT22;31763;48.180;7.904;2024-02-23T07:12:52;2.60;99.90
46029;DHT22;31763;48.180;7.904;2024-02-23T07:15:20;2.60;99.90
46029;DHT22;31763;48.180;7.904;2024-02-23T07:17:47;2.70;99.90
46029;DHT22;31763;48.180;7.904;2024-02-23T07:20:14;2.70;99.90
46029;DHT22;31763;48.180;7.904;2024-02-23T07:22:44;2.70;99.90
46029;DHT22;31763;48.180;7.904;2024-02-23T07:25:20;2.80;99.90
46029;DHT22;31763;48.180;7.904;2024-02-23T07:27:47;2.80;99.90
46029;DHT22;31763;48.180;7.904;2024-02-23T07:30:17;2.80;99.90
46029;DHT22;31763;48.180;7.904;2024-02-23T07:32:44;2.90;99.90
46029;DHT22;31763;48.180;7.904;2024-02-23T07:35:18;2.90;99.90
46029;DHT22;31763;48.180;7.904;2024-02-23T07:37:46;3.00;99.90
46029;DHT22;31763;48.180;7.904;2024-02-23T07:40:13;3.10;99.90
46029;DHT22;31763;48.180;7.904;2024-02-23T07:42:43;3.10;99.90
46029;DHT22;31763;48.180;7.904;2024-02-23T07:45:10;3.10;99.90
46029;DHT22;31763;48.180;7.904;2024-02-23T07:47:37;3.20;99.90
46029;DHT22;31763;48.180;7.904;2024-02-23T07:50:05;3.20;99.90
46029;DHT22;31763;48.180;7.904;2024-02-23T07:52:32;3.30;99.90
46029;DHT22;31763;48.180;7.904;2024-02-23T07:54:59;3.30;99.90
46029;DHT22;31763;48.180;7.904;2024-02-23T07:57:29;3.40;99.90
46029;DHT22;31763;48.180;7.904;2024-02-23T07:59:57;3.40;99.90
46029;DHT22;31763;48.180;7.904;2024-02-23T08:02:24;3.40;99.90
46029;DHT22;31763;48.180;7.904;2024-02-23T08:04:51;3.40;99.90
46029;DHT22;31763;48.180;7.904;2024-02-23T08:07:19;3.50;99.90
46029;DHT22;31763;48.180;7.904;2024-02-23T08:09:46;3.50;99.90
46029;DHT22;31763;48.180;7.904;2024-02-23T08:12:13;3.70;99.90
46029;DHT22;31763;48.180;7.904;2024-02-23T08:14:40;3.70;99.90
46029;DHT22;31763;48.180;7.904;2024-02-23T08:17:08;3.80;99.90
46029;DHT22;31763;48.180;7.904;2024-02-23T08:19:37;3.80;99.90
46029;DHT22;31763;48.180;7.904;2024-02-23T08:22:04;3.80;99.90
46029;DHT22;31763;48.180;7.904;2024-02-23T08:24:30;3.90;99.90
46029;DHT22;31763;48.180;7.904;2024-02-23T08:26:58;4.00;99.90
46029;DHT22;31763;48.180;7.904;2024-02-23T08:29:25;4.10;99.90
46029;DHT22;31763;48.180;7.904;2024-02-23T08:31:53;4.20;99.90
46029;DHT22;31763;48.180;7.904;2024-02-23T08:34:20;4.30;99.90
46029;DHT22;31763;48.180;7.904;2024-02-23T08:36:47;4.30;99.90
46029;DHT22;31763;48.180;7.904;2024-02-23T08:39:14;4.40;99.90
46029;DHT22;31763;48.180;7.904;2024-02-23T08:41:40;4.50;99.90
46029;DHT22;31763;48.180;7.904;2024-02-23T08:44:07;4.40;99.90
46029;DHT22;31763;48.180;7.904;2024-02-23T08:46:34;4.50;99.90
46029;DHT22;31763;48.180;7.904;2024-02-23T08:49:01;4.50;99.90
46029;DHT22;31763;48.180;7.904;2024-02-23T08:51:28;4.60;99.90
46029;DHT22;31763;48.180;7.904;2024-02-23T08:53:55;4.60;99.90
46029;DHT22;31763;48.180;7.904;2024-02-23T08:56:26;4.70;99.90
46029;DHT22;31763;48.180;7.904;2024-02-23T08:58:53;4.70;99.90
46029;DHT22;31763;48.180;7.904;2024-02-23T09:01:20;4.70;99.90
46029;DHT22;31763;48.180;7.904;2024-02-23T09:03:48;4.70;99.90
46029;DHT22;31763;48.180;7.904;2024-02-23T09:06:15;4.90;99.90
46029;DHT22;31763;48.180;7.904;2024-02-23T09:08:42;5.00;99.90
46029;DHT22;31763;48.180;7.904;2024-02-23T09:11:09;5.00;99.90
46029;DHT22;31763;48.180;7.904;2024-02-23T09:13:38;5.10;99.90
46029;DHT22;31763;48.180;7.904;2024-02-23T09:16:05;5.10;99.90
46029;DHT22;31763;48.180;7.904;2024-02-23T09:18:32;5.00;99.90
46029;DHT22;31763;48.180;7.904;2024-02-23T09:20:59;5.00;99.90
46029;DHT22;31763;48.180;7.904;2024-02-23T09:23:26;5.10;99.90
46029;DHT22;31763;48.180;7.904;2024-02-23T09:25:53;5.10;99.90
46029;DHT22;31763;48.180;7.904;2024-02-23T09:28:20;5.10;99.90
46029;DHT22;31763;48.180;7.904;2024-02-23T09:30:47;5.10;99.90
46029;DHT22;31763;48.180;7.904;2024-02-23T09:33:14;5.10;99.90
46029;DHT22;31763;48.180;7.904;2024-02-23T09:35:41;5.20;99.90
46029;DHT22;31763;48.180;7.904;2024-02-23T09:38:08;5.20;99.90
46029;DHT22;31763;48.180;7.904;2024-02-23T09:40:35;5.40;99.90
46029;DHT22;31763;48.180;7.904;2024-02-23T09:43:03;5.50;99.90
46029;DHT22;31763;48.180;7.904;2024-02-23T09:45:33;5.60;99.90
46029;DHT22;31763;48.180;7.904;2024-02-23T09:48:00;5.70;99.90
46029;DHT22;31763;48.180;7.904;2024-02-23T09:50:30;5.70;99.90
46029;DHT22;31763;48.180;7.904;2024-02-23T09:52:58;5.70;99.90
46029;DHT22;31763;48.180;7.904;2024-02-23T09:55:25;5.50;99.90
46029;DHT22;31763;48.180;7.904;2024-02-23T09:57:55;5.60;99.90
46029;DHT22;31763;48.180;7.904;2024-02-23T10:00:24;5.50;99.90
46029;DHT22;31763;48.180;7.904;2024-02-23T10:02:53;5.60;99.90
46029;DHT22;31763;48.180;7.904;2024-02-23T10:05:23;5.70;99.90
46029;DHT22;31763;48.180;7.904;2024-02-23T10:08:01;5.60;99.90
46029;DHT22;31763;48.180;7.904;2024-02-23T10:10:32;6.00;99.90
46029;DHT22;31763;48.180;7.904;2024-02-23T10:13:00;6.00;99.90
46029;DHT22;31763;48.180;7.904;2024-02-23T10:15:30;6.10;99.90
46029;DHT22;31763;48.180;7.904;2024-02-23T10:17:58;6.20;99.90
46029;DHT22;31763;48.180;7.904;2024-02-23T10:20:25;6.10;99.90
46029;DHT22;31763;48.180;7.904;2024-02-23T10:22:52;6.10;99.90
46029;DHT22;31763;48.180;7.904;2024-02-23T10:25:20;5.90;99.90
46029;DHT22;31763;48.180;7.904;2024-02-23T10:27:48;5.80;99.90
46029;DHT22;31763;48.180;7.904;2024-02-23T10:30:15;6.00;99.90
46029;DHT22;31763;48.180;7.904;2024-02-23T10:32:42;6.30;99.90
46029;DHT22;31763;48.180;7.904;2024-02-23T10:35:13;6.40;99.90
46029;DHT22;31763;48.180;7.904;2024-02-23T10:37:48;6.20;99.90
46029;DHT22;31763;48.180;7.904;2024-02-23T10:40:20;6.30;99.90
46029;DHT22;31763;48.180;7.904;2024-02-23T10:42:47;6.40;99.90
46029;DHT22;31763;48.180;7.904;2024-02-23T10:45:18;6.40;99.90
46029;DHT22;31763;48.180;7.904;2024-02-23T10:47:47;6.50;99.90
46029;DHT22;31763;48.180;7.904;2024-02-23T10:50:15;6.80;99.90
46029;DHT22;31763;48.180;7.904;2024-02-23T10:52:43;6.90;99.90
46029;DHT22;31763;48.180;7.904;2024-02-23T10:55:10;6.90;99.90
46029;DHT22;31763;48.180;7.904;2024-02-23T10:57:37;6.70;99.90
46029;DHT22;31763;48.180;7.904;2024-02-23T11:00:09;6.60;99.90
46029;DHT22;31763;48.180;7.904;2024-02-23T11:02:42;6.80;99.90
46029;DHT22;31763;48.180;7.904;2024-02-23T11:05:11;6.90;99.90
46029;DHT22;31763;48.180;7.904;2024-02-23T11:07:39;7.10;99.90
46029;DHT22;31763;48.180;7.904;2024-02-23T11:10:07;7.30;99.90
46029;DHT22;31763;48.180;7.904;2024-02-23T11:12:35;7.60;99.90
46029;DHT22;31763;48.180;7.904;2024-02-23T11:15:03;7.80;99.90
46029;DHT22;31763;48.180;7.904;2024-02-23T11:17:32;7.90;99.90
46029;DHT22;31763;48.180;7.904;2024-02-23T11:20:03;7.40;99.90
46029;DHT22;31763;48.180;7.904;2024-02-23T11:22:32;7.40;99.90
46029;DHT22;31763;48.180;7.904;2024-02-23T11:25:08;7.30;99.90
46029;DHT22;31763;48.180;7.904;2024-02-23T11:27:37;7.70;99.90
46029;DHT22;31763;48.180;7.904;2024-02-23T11:30:08;7.50;99.90
46029;DHT22;31763;48.180;7.904;2024-02-23T11:32:45;7.50;99.90
46029;DHT22;31763;48.180;7.904;2024-02-23T11:35:25;6.80;99.90
46029;DHT22;31763;48.180;7.904;2024-02-23T11:37:56;7.40;99.90
46029;DHT22;31763;48.180;7.904;2024-02-23T11:40:26;8.10;99.90
46029;DHT22;31763;48.180;7.904;2024-02-23T11:42:55;8.30;99.90
46029;DHT22;31763;48.180;7.904;2024-02-23T11:45:23;8.60;99.90
46029;DHT22;31763;48.180;7.904;2024-02-23T11:47:50;8.40;99.90
46029;DHT22;31763;48.180;7.904;2024-02-23T11:50:18;8.00;99.90
46029;DHT22;31763;48.180;7.904;2024-02-23T11:52:48;7.90;99.90
46029;DHT22;31763;48.180;7.904;2024-02-23T11:55:19;7.80;99.90
46029;DHT22;31763;48.180;7.904;2024-02-23T11:57:50;8.50;99.90
46029;DHT22;31763;48.180;7.904;2024-02-23T12:00:30;8.50;99.90
46029;DHT22;31763;48.180;7.904;2024-02-23T12:02:58;7.60;99.90
46029;DHT22;31763;48.180;7.904;2024-02-23T12:05:26;7.90;99.90
46029;DHT22;31763;48.180;7.904;2024-02-23T12:07:53;7.80;99.90
46029;DHT22;31763;48.180;7.904;2024-02-23T12:10:21;8.00;99.90
46029;DHT22;31763;48.180;7.904;2024-02-23T12:12:48;8.20;99.90
46029;DHT22;31763;48.180;7.904;2024-02-23T12:15:15;7.80;99.90
46029;DHT22;31763;48.180;7.904;2024-02-23T12:17:49;7.80;99.90
46029;DHT22;31763;48.180;7.904;2024-02-23T12:20:16;7.50;99.90
46029;DHT22;31763;48.180;7.904;2024-02-23T12:22:44;7.30;99.90
46029;DHT22;31763;48.180;7.904;2024-02-23T12:25:12;7.70;99.90
46029;DHT22;31763;48.180;7.904;2024-02-23T12:27:40;7.80;99.90
46029;DHT22;31763;48.180;7.904;2024-02-23T12:30:13;7.60;99.90
46029;DHT22;31763;48.180;7.904;2024-02-23T12:32:41;7.80;99.90
46029;DHT22;31763;48.180;7.904;2024-02-23T12:35:11;8.30;99.90
46029;DHT22;31763;48.180;7.904;2024-02-23T12:37:39;8.70;99.90
46029;DHT22;31763;48.180;7.904;2024-02-23T12:40:10;8.40;99.90
46029;DHT22;31763;48.180;7.904;2024-02-23T12:42:38;7.90;99.90
46029;DHT22;31763;48.180;7.904;2024-02-23T12:45:05;7.80;99.90
46029;DHT22;31763;48.180;7.904;2024-02-23T12:47:32;7.80;99.90
46029;DHT22;31763;48.180;7.904;2024-02-23T12:49:59;7.50;99.90
46029;DHT22;31763;48.180;7.904;2024-02-23T12:52:26;7.70;99.90
46029;DHT22;31763;48.180;7.904;2024-02-23T12:54:53;8.10;99.90
46029;DHT22;31763;48.180;7.904;2024-02-23T12:57:20;7.90;99.90
46029;DHT22;31763;48.180;7.904;2024-02-23T12:59:47;8.10;99.90
46029;DHT22;31763;48.180;7.904;2024-02-23T13:02:14;7.90;99.90
46029;DHT22;31763;48.180;7.904;2024-02-23T13:04:41;7.60;99.90
46029;DHT22;31763;48.180;7.904;2024-02-23T13:07:12;7.40;99.90
46029;DHT22;31763;48.180;7.904;2024-02-23T13:09:39;7.30;99.90
46029;DHT22;31763;48.180;7.904;2024-02-23T13:12:06;7.90;99.90
46029;DHT22;31763;48.180;7.904;2024-02-23T13:14:33;7.80;99.90
46029;DHT22;31763;48.180;7.904;2024-02-23T13:17:00;7.70;99.90
46029;DHT22;31763;48.180;7.904;2024-02-23T13:19:27;8.00;99.90
46029;DHT22;31763;48.180;7.904;2024-02-23T13:21:54;8.70;99.90
46029;DHT22;31763;48.180;7.904;2024-02-23T13:24:21;8.50;99.90
46029;DHT22;31763;48.180;7.904;2024-02-23T13:26:47;8.40;99.90
46029;DHT22;31763;48.180;7.904;2024-02-23T13:29:14;8.40;99.90
46029;DHT22;31763;48.180;7.904;2024-02-23T13:31:42;8.20;99.90
46029;DHT22;31763;48.180;7.904;2024-02-23T13:34:08;8.90;99.90
46029;DHT22;31763;48.180;7.904;2024-02-23T13:36:36;8.70;99.90
46029;DHT22;31763;48.180;7.904;2024-02-23T13:39:03;9.00;99.90
46029;DHT22;31763;48.180;7.904;2024-02-23T13:41:30;9.20;99.90
46029;DHT22;31763;48.180;7.904;2024-02-23T13:43:57;9.50;99.90
46029;DHT22;31763;48.180;7.904;2024-02-23T13:46:24;9.00;99.90
46029;DHT22;31763;48.180;7.904;2024-02-23T13:49:03;9.20;99.90
46029;DHT22;31763;48.180;7.904;2024-02-23T13:51:33;9.10;99.90
46029;DHT22;31763;48.180;7.904;2024-02-23T13:54:00;8.70;99.90
46029;DHT22;31763;48.180;7.904;2024-02-23T13:56:27;8.30;99.90
46029;DHT22;31763;48.180;7.904;2024-02-23T13:58:54;8.60;99.90
46029;DHT22;31763;48.180;7.904;2024-02-23T14:01:21;8.80;99.90
46029;DHT22;31763;48.180;7.904;2024-02-23T14:03:48;8.40;99.90
46029;DHT22;31763;48.180;7.904;2024-02-23T14:06:15;8.10;99.90
46029;DHT22;31763;48.180;7.904;2024-02-23T14:08:42;8.30;99.90
46029;DHT22;31763;48.180;7.904;2024-02-23T14:11:10;8.50;99.90
46029;DHT22;31763;48.180;7.904;2024-02-23T14:13:37;8.10;99.90
46029;DHT22;31763;48.180;7.904;2024-02-23T14:16:05;7.90;99.90
46029;DHT22;31763;48.180;7.904;2024-02-23T14:18:32;7.80;99.90
46029;DHT22;31763;48.180;7.904;2024-02-23T14:21:04;7.80;99.90
46029;DHT22;31763;48.180;7.904;2024-02-23T14:23:31;7.80;99.90
46029;DHT22;31763;48.180;7.904;2024-02-23T14:25:58;7.80;99.90
46029;DHT22;31763;48.180;7.904;2024-02-23T14:28:26;7.90;99.90
46029;DHT22;31763;48.180;7.904;2024-02-23T14:30:52;8.00;99.90
46029;DHT22;31763;48.180;7.904;2024-02-23T14:33:20;7.90;99.90
46029;DHT22;31763;48.180;7.904;2024-02-23T14:35:47;7.80;99.90
46029;DHT22;31763;48.180;7.904;2024-02-23T14:38:16;7.60;99.90
46029;DHT22;31763;48.180;7.904;2024-02-23T14:40:43;7.70;99.90
46029;DHT22;31763;48.180;7.904;2024-02-23T14:43:10;7.70;99.90
46029;DHT22;31763;48.180;7.904;2024-02-23T14:45:37;7.90;99.90
46029;DHT22;31763;48.180;7.904;2024-02-23T14:48:05;7.80;99.90
46029;DHT22;31763;48.180;7.904;2024-02-23T14:50:32;7.90;99.90
46029;DHT22;31763;48.180;7.904;2024-02-23T14:53:00;7.80;99.90
46029;DHT22;31763;48.180;7.904;2024-02-23T14:55:27;8.20;99.90
46029;DHT22;31763;48.180;7.904;2024-02-23T14:57:54;8.80;99.90
46029;DHT22;31763;48.180;7.904;2024-02-23T15:00:21;9.40;99.90
46029;DHT22;31763;48.180;7.904;2024-02-23T15:02:48;9.70;99.90
46029;DHT22;31763;48.180;7.904;2024-02-23T15:05:15;8.90;99.90
46029;DHT22;31763;48.180;7.904;2024-02-23T15:07:44;8.80;99.90
46029;DHT22;31763;48.180;7.904;2024-02-23T15:10:11;8.90;99.90
46029;DHT22;31763;48.180;7.904;2024-02-23T15:12:37;9.20;99.90
46029;DHT22;31763;48.180;7.904;2024-02-23T15:15:05;9.70;99.90
46029;DHT22;31763;48.180;7.904;2024-02-23T15:17:33;9.40;99.90
46029;DHT22;31763;48.180;7.904;2024-02-23T15:20:01;8.40;99.90
46029;DHT22;31763;48.180;7.904;2024-02-23T15:22:29;8.10;99.90
46029;DHT22;31763;48.180;7.904;2024-02-23T15:24:56;8.30;99.90
46029;DHT22;31763;48.180;7.904;2024-02-23T15:27:26;8.50;99.90
46029;DHT22;31763;48.180;7.904;2024-02-23T15:29:53;8.40;99.90
46029;DHT22;31763;48.180;7.904;2024-02-23T15:32:19;8.20;99.90
46029;DHT22;31763;48.180;7.904;2024-02-23T15:34:46;7.90;99.90
46029;DHT22;31763;48.180;7.904;2024-02-23T15:37:13;7.80;99.90
46029;DHT22;31763;48.180;7.904;2024-02-23T15:39:40;7.70;99.90
46029;DHT22;31763;48.180;7.904;2024-02-23T15:42:07;7.70;99.90
46029;DHT22;31763;48.180;7.904;2024-02-23T15:44:34;7.70;99.90
46029;DHT22;31763;48.180;7.904;2024-02-23T15:47:01;7.70;99.90
46029;DHT22;31763;48.180;7.904;2024-02-23T15:49:28;7.70;99.90
46029;DHT22;31763;48.180;7.904;2024-02-23T15:52:15;8.00;99.90